createdAt,value
2023-03-08T00:00:35.618Z,87.90
2023-03-08T00:01:35.594Z,88.31
2023-03-08T00:02:35.617Z,88.00
2023-03-08T00:03:35.607Z,87.90
2023-03-08T00:04:35.654Z,88.42
2023-03-08T00:05:35.563Z,87.94
2023-03-08T00:06:35.562Z,87.94
2023-03-08T00:07:35.545Z,87.90
2023-03-08T00:08:35.601Z,88.10
2023-03-08T00:09:35.524Z,88.10
2023-03-08T00:10:35.530Z,87.90
2023-03-08T00:11:35.514Z,88.10
2023-03-08T00:12:36.493Z,88.52
2023-03-08T00:13:35.522Z,88.10
2023-03-08T00:14:35.495Z,87.69
2023-03-08T00:15:35.485Z,87.79
2023-03-08T00:16:35.469Z,88.21
2023-03-08T00:17:35.449Z,88.31
2023-03-08T00:18:35.509Z,88.00
2023-03-08T00:19:35.420Z,87.90
2023-03-08T00:20:35.421Z,88.07
2023-03-08T00:21:35.417Z,88.42
2023-03-08T00:22:35.413Z,87.79
2023-03-08T00:23:35.396Z,86.96
2023-03-08T00:24:35.410Z,87.38
2023-03-08T00:25:35.373Z,87.69
2023-03-08T00:26:35.356Z,87.69
2023-03-08T00:27:35.377Z,87.59
2023-03-08T00:28:35.345Z,88.56
2023-03-08T00:29:35.348Z,88.52
2023-03-08T00:30:35.323Z,87.59
2023-03-08T00:31:35.354Z,88.42
2023-03-08T00:32:35.361Z,87.90
2023-03-08T00:33:35.315Z,88.21
2023-03-08T00:34:35.312Z,88.00
2023-03-08T00:35:35.354Z,88.04
2023-03-08T00:36:35.269Z,88.31
2023-03-08T00:37:35.265Z,88.21
2023-03-08T00:38:35.260Z,88.46
2023-03-08T00:39:35.265Z,88.46
2023-03-08T00:40:35.231Z,88.35
2023-03-08T00:41:35.217Z,88.87
2023-03-08T00:42:35.232Z,89.18
2023-03-08T00:43:35.223Z,89.39
2023-03-08T00:44:35.222Z,89.02
2023-03-08T00:45:35.189Z,89.33
2023-03-08T00:46:35.257Z,89.33
2023-03-08T00:47:35.150Z,89.64
2023-03-08T00:48:35.238Z,89.60
2023-03-08T00:49:35.152Z,90.12
2023-03-08T00:50:35.194Z,90.16
2023-03-08T00:51:35.137Z,89.95
2023-03-08T00:52:35.113Z,90.26
2023-03-08T00:53:35.139Z,89.85
2023-03-08T00:54:35.137Z,90.58
2023-03-08T00:55:35.094Z,90.47
2023-03-08T00:56:35.077Z,90.79
2023-03-08T00:57:35.071Z,90.47
2023-03-08T00:58:35.071Z,90.79
2023-03-08T00:59:35.086Z,89.17
2023-03-08T01:00:35.050Z,88.54
2023-03-08T01:01:35.044Z,88.68
2023-03-08T01:02:35.017Z,88.89
2023-03-08T01:03:35.007Z,88.75
2023-03-08T01:04:35.037Z,89.20
2023-03-08T01:05:34.995Z,90.31
2023-03-08T01:06:34.982Z,90.35
2023-03-08T01:07:34.969Z,90.77
2023-03-08T01:08:34.989Z,91.14
2023-03-08T01:09:34.960Z,91.25
2023-03-08T01:10:34.934Z,91.04
2023-03-08T01:11:34.935Z,90.89
2023-03-08T01:12:34.925Z,91.31
2023-03-08T01:13:34.939Z,90.69
2023-03-08T01:14:34.912Z,90.47
2023-03-08T01:15:34.905Z,90.37
2023-03-08T01:16:35.887Z,90.47
2023-03-08T01:17:34.887Z,90.69
2023-03-08T01:18:34.858Z,90.58
2023-03-08T01:19:34.848Z,90.26
2023-03-08T01:20:34.856Z,90.37
2023-03-08T01:21:34.832Z,90.37
2023-03-08T01:22:34.823Z,90.41
2023-03-08T01:23:34.841Z,90.52
2023-03-08T01:24:34.795Z,91.46
2023-03-08T01:25:34.792Z,91.46
2023-03-08T01:26:34.794Z,91.14
2023-03-08T01:28:06.664Z,91.35
2023-03-08T01:28:34.747Z,90.97
2023-03-08T01:29:34.757Z,91.81
2023-03-08T01:30:34.759Z,91.66
2023-03-08T01:31:34.784Z,92.02
2023-03-08T01:32:34.773Z,92.43
2023-03-08T01:33:34.716Z,92.22
2023-03-08T01:34:34.713Z,92.18
2023-03-08T01:35:34.740Z,91.91
2023-03-08T01:36:34.698Z,92.18
2023-03-08T01:37:34.718Z,91.97
2023-03-08T01:38:34.696Z,91.50
2023-03-08T01:39:34.679Z,91.71
2023-03-08T01:40:34.666Z,91.81
2023-03-08T01:41:34.641Z,92.02
2023-03-08T01:42:34.620Z,92.33
2023-03-08T01:43:34.615Z,91.87
2023-03-08T01:44:34.625Z,91.66
2023-03-08T01:45:34.618Z,91.66
2023-03-08T01:46:34.589Z,91.77
2023-03-08T01:47:34.569Z,91.35
2023-03-08T01:48:34.560Z,91.31
2023-03-08T01:49:34.574Z,90.31
2023-03-08T01:50:34.547Z,90.72
2023-03-08T01:51:34.542Z,90.72
2023-03-08T01:52:34.524Z,90.52
2023-03-08T01:53:34.530Z,91.04
2023-03-08T01:54:34.519Z,91.04
2023-03-08T01:55:34.492Z,90.52
2023-03-08T01:56:34.474Z,90.52
2023-03-08T01:57:34.481Z,91.14
2023-03-08T01:58:34.464Z,90.93
2023-03-08T01:59:34.481Z,91.04
2023-03-08T02:00:34.436Z,91.35
2023-03-08T02:01:34.443Z,90.58
2023-03-08T02:02:34.444Z,90.83
2023-03-08T02:03:34.421Z,90.79
2023-03-08T02:04:34.423Z,90.69
2023-03-08T02:05:34.398Z,90.58
2023-03-08T02:06:34.401Z,90.37
2023-03-08T02:07:34.368Z,90.83
2023-03-08T02:08:34.455Z,90.62
2023-03-08T02:09:34.361Z,90.93
2023-03-08T02:10:34.368Z,90.62
2023-03-08T02:11:34.349Z,90.97
2023-03-08T02:12:34.343Z,90.56
2023-03-08T02:13:34.340Z,91.50
2023-03-08T02:14:34.303Z,91.60
2023-03-08T02:15:34.312Z,91.08
2023-03-08T02:16:34.317Z,91.28
2023-03-08T02:17:34.291Z,91.08
2023-03-08T02:18:34.271Z,90.97
2023-03-08T02:19:34.263Z,91.39
2023-03-08T02:20:34.253Z,91.39
2023-03-08T02:21:34.255Z,91.28
2023-03-08T02:22:34.249Z,91.71
2023-03-08T02:23:34.222Z,91.71
2023-03-08T02:24:34.218Z,91.14
2023-03-08T02:25:34.195Z,90.83
2023-03-08T02:26:35.222Z,91.08
2023-03-08T02:27:34.180Z,91.08
2023-03-08T02:28:34.181Z,91.77
2023-03-08T02:29:34.161Z,91.39
2023-03-08T02:30:34.175Z,92.02
2023-03-08T02:31:34.144Z,91.53
2023-03-08T02:32:34.198Z,91.91
2023-03-08T02:33:34.126Z,92.02
2023-03-08T02:34:34.114Z,92.37
2023-03-08T02:35:34.220Z,92.64
2023-03-08T02:36:34.127Z,92.68
2023-03-08T02:37:34.101Z,92.37
2023-03-08T02:38:34.087Z,92.22
2023-03-08T02:39:34.074Z,92.43
2023-03-08T02:40:34.058Z,92.33
2023-03-08T02:41:34.076Z,92.08
2023-03-08T02:42:34.041Z,91.71
2023-03-08T02:43:34.050Z,91.25
2023-03-08T02:44:34.029Z,91.91
2023-03-08T02:45:34.044Z,91.81
2023-03-08T02:46:34.011Z,91.60
2023-03-08T02:47:34.016Z,91.81
2023-03-08T02:48:33.989Z,91.81
2023-03-08T02:49:33.974Z,91.60
2023-03-08T02:50:33.972Z,91.60
2023-03-08T02:51:33.971Z,91.60
2023-03-08T02:52:33.978Z,91.77
2023-03-08T02:53:33.954Z,91.71
2023-03-08T02:54:33.932Z,91.71
2023-03-08T02:55:33.937Z,91.50
2023-03-08T02:56:34.021Z,91.71
2023-03-08T02:57:33.898Z,91.56
2023-03-08T02:58:33.889Z,91.97
2023-03-08T02:59:33.894Z,91.77
2023-03-08T03:00:33.869Z,91.77
2023-03-08T03:01:33.967Z,90.93
2023-03-08T03:02:33.850Z,90.93
2023-03-08T03:03:33.847Z,90.93
2023-03-08T03:04:33.852Z,91.14
2023-03-08T03:05:33.810Z,91.18
2023-03-08T03:06:33.880Z,91.81
2023-03-08T03:07:33.811Z,92.12
2023-03-08T03:08:33.795Z,92.33
2023-03-08T03:09:33.800Z,92.06
2023-03-08T03:10:33.818Z,92.33
2023-03-08T03:11:33.757Z,92.37
2023-03-08T03:12:33.758Z,92.58
2023-03-08T03:13:33.739Z,92.79
2023-03-08T03:14:33.741Z,92.89
2023-03-08T03:15:33.745Z,92.89
2023-03-08T03:16:33.710Z,92.58
2023-03-08T03:17:33.701Z,92.89
2023-03-08T03:18:33.717Z,92.43
2023-03-08T03:19:33.686Z,92.58
2023-03-08T03:20:33.670Z,92.64
2023-03-08T03:21:33.651Z,92.47
2023-03-08T03:22:33.656Z,92.37
2023-03-08T03:23:33.654Z,92.68
2023-03-08T03:24:34.939Z,92.58
2023-03-08T03:25:33.623Z,92.27
2023-03-08T03:26:33.615Z,92.52
2023-03-08T03:27:33.606Z,92.93
2023-03-08T03:28:33.593Z,92.99
2023-03-08T03:29:33.596Z,93.04
2023-03-08T03:30:33.560Z,93.04
2023-03-08T03:31:33.563Z,93.35
2023-03-08T03:32:33.637Z,93.20
2023-03-08T03:33:33.562Z,92.89
2023-03-08T03:34:33.535Z,93.04
2023-03-08T03:35:33.561Z,93.10
2023-03-08T03:36:33.508Z,92.99
2023-03-08T03:37:33.501Z,92.99
2023-03-08T03:38:33.503Z,93.41
2023-03-08T03:39:33.499Z,93.31
2023-03-08T03:40:33.472Z,93.05
2023-03-08T03:41:33.452Z,92.89
2023-03-08T03:42:33.449Z,92.89
2023-03-08T03:43:33.440Z,93.10
2023-03-08T03:44:33.444Z,92.95
2023-03-08T03:45:33.418Z,92.68
2023-03-08T03:46:33.441Z,93.24
2023-03-08T03:47:33.407Z,93.35
2023-03-08T03:48:33.404Z,93.77
2023-03-08T03:49:33.385Z,93.87
2023-03-08T03:50:33.382Z,94.18
2023-03-08T03:51:33.367Z,93.87
2023-03-08T03:52:33.378Z,93.87
2023-03-08T03:53:33.350Z,93.66
2023-03-08T03:54:33.342Z,94.08
2023-03-08T03:55:33.365Z,93.87
2023-03-08T03:56:33.320Z,93.87
2023-03-08T03:57:33.324Z,93.56
2023-03-08T03:58:33.305Z,93.77
2023-03-08T03:59:33.298Z,93.46
2023-03-08T04:00:33.340Z,93.77
2023-03-08T04:01:33.296Z,93.77
2023-03-08T04:02:33.309Z,93.77
2023-03-08T04:03:33.312Z,93.98
2023-03-08T04:04:33.241Z,93.66
2023-03-08T04:05:33.242Z,93.66
2023-03-08T04:06:33.234Z,93.81
2023-03-08T04:07:33.254Z,93.98
2023-03-08T04:08:33.209Z,93.81
2023-03-08T04:09:33.206Z,93.66
2023-03-08T04:10:33.200Z,93.56
2023-03-08T04:11:33.204Z,93.77
2023-03-08T04:12:33.181Z,93.35
2023-03-08T04:13:33.167Z,93.56
2023-03-08T04:14:33.155Z,93.24
2023-03-08T04:15:33.150Z,93.35
2023-03-08T04:16:33.205Z,93.46
2023-03-08T04:17:33.139Z,93.24
2023-03-08T04:18:33.121Z,93.24
2023-03-08T04:19:34.125Z,93.24
2023-03-08T04:20:33.103Z,93.46
2023-03-08T04:21:33.087Z,93.40
2023-03-08T04:22:33.102Z,93.56
2023-03-08T04:23:33.076Z,93.35
2023-03-08T04:24:33.070Z,93.50
2023-03-08T04:25:33.045Z,93.60
2023-03-08T04:26:33.050Z,93.50
2023-03-08T04:27:33.088Z,93.71
2023-03-08T04:28:33.021Z,93.77
2023-03-08T04:29:33.024Z,93.77
2023-03-08T04:30:32.999Z,93.46
2023-03-08T04:31:33.021Z,93.56
2023-03-08T04:32:33.191Z,93.29
2023-03-08T04:33:32.976Z,93.24
2023-03-08T04:34:32.980Z,92.72
2023-03-08T04:35:32.971Z,93.29
2023-03-08T04:36:32.950Z,93.50
2023-03-08T04:37:32.928Z,93.29
2023-03-08T04:38:32.939Z,93.56
2023-03-08T04:39:32.925Z,93.35
2023-03-08T04:40:32.896Z,92.93
2023-03-08T04:41:32.900Z,93.24
2023-03-08T04:42:32.890Z,93.10
2023-03-08T04:43:32.894Z,92.72
2023-03-08T04:44:32.873Z,92.52
2023-03-08T04:45:32.855Z,92.62
2023-03-08T04:46:32.891Z,92.77
2023-03-08T04:47:32.840Z,92.77
2023-03-08T04:48:32.848Z,92.77
2023-03-08T04:49:32.817Z,92.97
2023-03-08T04:50:32.798Z,93.04
2023-03-08T04:51:32.814Z,93.24
2023-03-08T04:52:32.786Z,92.83
2023-03-08T04:53:32.785Z,92.93
2023-03-08T04:54:32.771Z,92.72
2023-03-08T04:55:32.788Z,92.52
2023-03-08T04:56:32.746Z,92.52
2023-03-08T04:57:32.761Z,92.62
2023-03-08T04:58:32.722Z,92.52
2023-03-08T04:59:32.738Z,92.72
2023-03-08T05:00:32.726Z,92.47
2023-03-08T05:01:32.696Z,92.37
2023-03-08T05:02:33.656Z,91.96
2023-03-08T05:03:33.684Z,91.64
2023-03-08T05:04:32.707Z,91.75
2023-03-08T05:05:32.699Z,91.33
2023-03-08T05:06:32.655Z,91.22
2023-03-08T05:07:32.644Z,91.75
2023-03-08T05:08:32.641Z,91.64
2023-03-08T05:09:32.626Z,91.75
2023-03-08T05:10:32.678Z,91.53
2023-03-08T05:11:32.613Z,91.53
2023-03-08T05:12:32.595Z,91.22
2023-03-08T05:13:32.583Z,91.22
2023-03-08T05:14:32.573Z,90.60
2023-03-08T05:15:32.564Z,90.60
2023-03-08T05:16:32.623Z,90.70
2023-03-08T05:17:32.547Z,90.50
2023-03-08T05:18:32.542Z,90.60
2023-03-08T05:19:32.523Z,90.50
2023-03-08T05:20:32.518Z,90.08
2023-03-08T05:21:32.549Z,90.50
2023-03-08T05:22:32.495Z,90.54
2023-03-08T05:23:32.483Z,90.12
2023-03-08T05:24:32.466Z,90.33
2023-03-08T05:25:32.468Z,91.16
2023-03-08T05:26:32.444Z,91.47
2023-03-08T05:27:32.474Z,90.85
2023-03-08T05:28:32.431Z,91.78
2023-03-08T05:29:32.423Z,91.02
2023-03-08T05:30:32.417Z,90.50
2023-03-08T05:31:32.449Z,91.02
2023-03-08T05:32:32.469Z,90.91
2023-03-08T05:33:32.387Z,90.60
2023-03-08T05:34:32.378Z,90.91
2023-03-08T05:35:32.379Z,91.43
2023-03-08T05:36:32.447Z,90.50
2023-03-08T05:37:32.332Z,90.87
2023-03-08T05:38:33.347Z,90.87
2023-03-08T05:39:32.315Z,90.70
2023-03-08T05:40:32.307Z,90.29
2023-03-08T05:41:32.316Z,90.64
2023-03-08T05:42:32.299Z,90.75
2023-03-08T05:43:32.306Z,90.64
2023-03-08T05:44:32.282Z,90.85
2023-03-08T05:45:32.439Z,91.47
2023-03-08T05:46:32.278Z,91.72
2023-03-08T05:47:32.248Z,91.72
2023-03-08T05:48:32.264Z,91.89
2023-03-08T05:49:32.212Z,91.16
2023-03-08T05:50:33.213Z,91.58
2023-03-08T05:51:32.198Z,91.68
2023-03-08T05:52:34.484Z,90.95
2023-03-08T05:53:33.226Z,91.06
2023-03-08T05:54:32.197Z,91.58
2023-03-08T05:55:32.194Z,90.85
2023-03-08T05:56:32.179Z,91.06
2023-03-08T05:57:32.168Z,91.47
2023-03-08T05:58:32.135Z,91.47
2023-03-08T05:59:32.133Z,91.27
2023-03-08T06:00:32.139Z,91.37
2023-03-08T06:01:32.129Z,90.54
2023-03-08T06:02:32.096Z,90.44
2023-03-08T06:03:32.082Z,90.01
2023-03-08T06:04:32.072Z,90.47
2023-03-08T06:05:32.092Z,90.75
2023-03-08T06:06:33.632Z,91.47
2023-03-08T06:07:32.160Z,91.37
2023-03-08T06:08:32.033Z,90.81
2023-03-08T06:09:32.026Z,91.02
2023-03-08T06:10:32.026Z,90.60
2023-03-08T06:11:32.001Z,90.56
2023-03-08T06:12:32.010Z,90.19
2023-03-08T06:13:31.995Z,89.50
2023-03-08T06:14:31.984Z,89.76
2023-03-08T06:15:32.007Z,89.87
2023-03-08T06:16:32.001Z,88.93
2023-03-08T06:17:31.952Z,89.20
2023-03-08T06:18:31.943Z,89.31
2023-03-08T06:19:31.925Z,89.04
2023-03-08T06:20:31.926Z,88.89
2023-03-08T06:21:31.926Z,89.20
2023-03-08T06:22:31.888Z,89.31
2023-03-08T06:23:31.899Z,89.31
2023-03-08T06:24:31.880Z,89.52
2023-03-08T06:25:31.892Z,88.89
2023-03-08T06:26:31.859Z,88.89
2023-03-08T06:27:31.880Z,88.85
2023-03-08T06:28:31.850Z,88.64
2023-03-08T06:29:31.879Z,88.23
2023-03-08T06:30:31.860Z,88.54
2023-03-08T06:31:31.820Z,87.92
2023-03-08T06:32:31.815Z,87.08
2023-03-08T06:33:32.807Z,86.98
2023-03-08T06:34:31.803Z,87.40
2023-03-08T06:35:31.792Z,87.81
2023-03-08T06:36:31.771Z,87.96
2023-03-08T06:37:31.765Z,88.58
2023-03-08T06:38:33.350Z,88.27
2023-03-08T06:39:32.739Z,88.27
2023-03-08T06:40:31.737Z,88.89
2023-03-08T06:41:31.721Z,88.68
2023-03-08T06:42:41.141Z,88.68
2023-03-08T06:43:32.707Z,88.58
2023-03-08T06:44:31.692Z,88.31
2023-03-08T06:45:31.672Z,88.27
2023-03-08T06:46:31.714Z,88.58
2023-03-08T06:47:31.683Z,88.48
2023-03-08T06:48:31.656Z,88.54
2023-03-08T06:49:31.648Z,88.27
2023-03-08T06:50:31.625Z,88.33
2023-03-08T06:51:31.657Z,88.27
2023-03-08T06:52:31.619Z,88.12
2023-03-08T06:53:31.635Z,88.43
2023-03-08T06:54:31.612Z,88.43
2023-03-08T06:55:31.609Z,88.54
2023-03-08T06:56:31.646Z,88.54
2023-03-08T06:57:31.579Z,87.29
2023-03-08T06:58:31.568Z,87.40
2023-03-08T06:59:31.565Z,87.25
2023-03-08T07:00:31.626Z,87.08
2023-03-08T07:01:31.588Z,87.50
2023-03-08T07:02:31.529Z,87.19
2023-03-08T07:03:31.514Z,87.40
2023-03-08T07:04:31.579Z,87.04
2023-03-08T07:05:32.480Z,87.25
2023-03-08T07:06:31.492Z,87.46
2023-03-08T07:07:31.495Z,86.94
2023-03-08T07:08:31.457Z,87.04
2023-03-08T07:09:31.474Z,86.94
2023-03-08T07:10:31.425Z,86.73
2023-03-08T07:11:31.442Z,86.94
2023-03-08T07:12:31.421Z,87.04
2023-03-08T07:13:31.395Z,86.73
2023-03-08T07:14:31.395Z,86.73
2023-03-08T07:15:31.457Z,86.83
2023-03-08T07:16:31.375Z,86.63
2023-03-08T07:17:31.353Z,86.52
2023-03-08T07:18:31.355Z,85.34
2023-03-08T07:19:31.342Z,86.27
2023-03-08T07:20:31.350Z,85.28
2023-03-08T07:21:31.344Z,85.80
2023-03-08T07:22:31.305Z,86.52
2023-03-08T07:23:31.306Z,86.63
2023-03-08T07:24:31.312Z,86.27
2023-03-08T07:25:31.291Z,86.38
2023-03-08T07:26:31.295Z,86.69
2023-03-08T07:27:52.729Z,86.59
2023-03-08T07:28:31.275Z,86.17
2023-03-08T07:29:31.254Z,86.69
2023-03-08T07:30:31.232Z,86.59
2023-03-08T07:31:31.244Z,86.59
2023-03-08T07:32:31.276Z,86.59
2023-03-08T07:33:31.246Z,85.65
2023-03-08T07:34:31.221Z,86.07
2023-03-08T07:35:31.185Z,86.38
2023-03-08T07:36:31.201Z,85.96
2023-03-08T07:37:31.161Z,85.44
2023-03-08T07:38:31.153Z,85.34
2023-03-08T07:39:31.146Z,85.49
2023-03-08T07:40:31.138Z,85.42
2023-03-08T07:41:32.140Z,85.83
2023-03-08T07:42:31.139Z,86.67
2023-03-08T07:43:31.149Z,87.02
2023-03-08T07:44:31.105Z,87.19
2023-03-08T07:45:31.103Z,86.88
2023-03-08T07:46:31.105Z,86.21
2023-03-08T07:47:31.072Z,86.67
2023-03-08T07:48:31.126Z,85.80
2023-03-08T07:49:31.056Z,85.59
2023-03-08T07:50:31.044Z,85.59
2023-03-08T07:51:31.038Z,85.24
2023-03-08T07:52:31.025Z,86.32
2023-03-08T07:53:31.036Z,85.38
2023-03-08T07:54:31.016Z,85.69
2023-03-08T07:55:30.987Z,84.96
2023-03-08T07:56:31.001Z,84.86
2023-03-08T07:57:30.980Z,84.44
2023-03-08T07:58:31.008Z,84.86
2023-03-08T07:59:30.963Z,85.49
2023-03-08T08:00:30.945Z,85.49
2023-03-08T08:01:30.961Z,85.31
2023-03-08T08:02:30.928Z,85.21
2023-03-08T08:03:31.055Z,85.38
2023-03-08T08:04:30.929Z,85.17
2023-03-08T08:05:30.971Z,85.49
2023-03-08T08:06:30.899Z,85.63
2023-03-08T08:07:30.876Z,85.49
2023-03-08T08:08:30.875Z,85.59
2023-03-08T08:09:30.854Z,85.73
2023-03-08T08:10:30.860Z,85.63
2023-03-08T08:11:30.848Z,86.71
2023-03-08T08:12:30.827Z,86.35
2023-03-08T08:13:30.833Z,86.77
2023-03-08T08:14:30.826Z,86.88
2023-03-08T08:15:30.816Z,86.57
2023-03-08T08:16:30.839Z,86.67
2023-03-08T08:17:30.771Z,86.50
2023-03-08T08:18:30.759Z,87.02
2023-03-08T08:19:30.750Z,86.91
2023-03-08T08:20:30.745Z,87.23
2023-03-08T08:21:30.753Z,87.48
2023-03-08T08:22:30.744Z,87.33
2023-03-08T08:23:30.738Z,87.89
2023-03-08T08:24:30.725Z,88.20
2023-03-08T08:25:30.703Z,88.31
2023-03-08T08:26:30.694Z,88.42
2023-03-08T08:27:30.680Z,88.42
2023-03-08T08:28:30.701Z,88.83
2023-03-08T08:29:30.664Z,88.62
2023-03-08T08:30:30.673Z,88.89
2023-03-08T08:31:30.817Z,88.83
2023-03-08T08:32:30.691Z,88.27
2023-03-08T08:33:30.635Z,88.06
2023-03-08T08:34:30.639Z,88.27
2023-03-08T08:35:42.349Z,87.96
2023-03-08T08:36:32.594Z,88.06
2023-03-08T08:37:30.586Z,88.62
2023-03-08T08:38:30.562Z,88.58
2023-03-08T08:39:30.563Z,88.52
2023-03-08T08:40:30.585Z,88.68
2023-03-08T08:41:30.549Z,88.48
2023-03-08T08:42:30.552Z,88.17
2023-03-08T08:43:30.516Z,88.37
2023-03-08T08:44:30.530Z,88.37
2023-03-08T08:45:30.507Z,88.37
2023-03-08T08:46:30.497Z,88.48
2023-03-08T08:47:30.512Z,88.27
2023-03-08T08:48:30.528Z,88.54
2023-03-08T08:49:30.463Z,88.06
2023-03-08T08:50:30.450Z,88.37
2023-03-08T08:51:30.443Z,88.48
2023-03-08T08:52:30.433Z,88.37
2023-03-08T08:53:30.437Z,88.27
2023-03-08T08:54:30.436Z,88.68
2023-03-08T08:55:30.407Z,88.43
2023-03-08T08:56:30.408Z,88.33
2023-03-08T08:57:30.454Z,88.54
2023-03-08T08:58:30.377Z,87.15
2023-03-08T08:59:30.370Z,87.66
2023-03-08T09:00:30.362Z,87.21
2023-03-08T09:01:30.355Z,87.25
2023-03-08T09:02:30.375Z,86.83
2023-03-08T09:03:30.364Z,86.90
2023-03-08T09:04:30.368Z,86.38
2023-03-08T09:05:30.316Z,86.38
2023-03-08T09:06:30.324Z,86.38
2023-03-08T09:07:30.288Z,85.82
2023-03-08T09:08:30.269Z,85.24
2023-03-08T09:09:30.278Z,85.24
2023-03-08T09:10:30.243Z,85.96
2023-03-08T09:11:30.249Z,86.59
2023-03-08T09:12:30.236Z,86.59
2023-03-08T09:13:30.237Z,86.83
2023-03-08T09:14:30.206Z,86.00
2023-03-08T09:15:30.193Z,86.83
2023-03-08T09:16:30.271Z,87.15
2023-03-08T09:17:30.196Z,87.29
2023-03-08T09:18:31.183Z,87.29
2023-03-08T09:19:30.188Z,87.71
2023-03-08T09:20:30.147Z,88.33
2023-03-08T09:21:30.173Z,88.85
2023-03-08T09:22:30.137Z,88.43
2023-03-08T09:23:30.120Z,88.64
2023-03-08T09:24:30.108Z,88.12
2023-03-08T09:25:30.121Z,88.29
2023-03-08T09:26:30.096Z,88.33
2023-03-08T09:27:30.082Z,88.43
2023-03-08T09:28:30.112Z,88.54
2023-03-08T09:29:30.073Z,89.00
2023-03-08T09:30:30.052Z,88.96
2023-03-08T09:31:30.051Z,88.96
2023-03-08T09:32:30.083Z,88.96
2023-03-08T09:33:30.102Z,88.54
2023-03-08T09:34:30.020Z,88.64
2023-03-08T09:35:30.151Z,88.60
2023-03-08T09:36:29.986Z,88.29
2023-03-08T09:37:30.030Z,88.29
2023-03-08T09:38:30.000Z,88.40
2023-03-08T09:39:29.965Z,88.19
2023-03-08T09:40:29.965Z,88.33
2023-03-08T09:41:29.955Z,88.81
2023-03-08T09:42:29.930Z,88.50
2023-03-08T09:43:29.948Z,88.29
2023-03-08T09:44:29.945Z,88.09
2023-03-08T09:45:29.926Z,88.40
2023-03-08T09:46:29.924Z,88.09
2023-03-08T09:47:29.896Z,88.40
2023-03-08T09:48:29.910Z,88.46
2023-03-08T09:49:29.902Z,88.29
2023-03-08T09:50:29.864Z,88.50
2023-03-08T09:51:29.855Z,88.35
2023-03-08T09:52:29.845Z,88.29
2023-03-08T09:53:29.864Z,88.19
2023-03-08T09:54:29.842Z,88.09
2023-03-08T09:55:29.879Z,88.50
2023-03-08T09:56:29.788Z,88.19
2023-03-08T09:57:29.833Z,88.19
2023-03-08T09:58:29.784Z,88.60
2023-03-08T09:59:29.787Z,89.12
2023-03-08T10:00:30.788Z,88.92
2023-03-08T10:01:29.753Z,88.92
2023-03-08T10:02:29.746Z,89.02
2023-03-08T10:03:29.767Z,88.81
2023-03-08T10:04:29.769Z,89.02
2023-03-08T10:05:29.706Z,89.33
2023-03-08T10:06:29.696Z,89.23
2023-03-08T10:07:29.707Z,88.77
2023-03-08T10:08:29.681Z,88.50
2023-03-08T10:09:29.686Z,88.56
2023-03-08T10:10:29.651Z,88.35
2023-03-08T10:11:29.647Z,88.25
2023-03-08T10:12:29.638Z,87.48
2023-03-08T10:13:29.645Z,88.35
2023-03-08T10:14:29.640Z,88.10
2023-03-08T10:15:29.608Z,87.07
2023-03-08T10:16:29.660Z,87.17
2023-03-08T10:17:29.597Z,87.07
2023-03-08T10:18:29.579Z,87.24
2023-03-08T10:19:29.604Z,87.03
2023-03-08T10:20:29.581Z,87.17
2023-03-08T10:21:29.559Z,87.24
2023-03-08T10:22:29.536Z,87.24
2023-03-08T10:23:29.532Z,87.24
2023-03-08T10:24:29.534Z,86.57
2023-03-08T10:25:29.509Z,86.36
2023-03-08T10:26:29.513Z,85.50
2023-03-08T10:27:29.576Z,85.50
2023-03-08T10:28:29.492Z,85.04
2023-03-08T10:29:29.473Z,85.04
2023-03-08T10:30:29.511Z,84.17
2023-03-08T10:31:29.499Z,83.65
2023-03-08T10:32:29.486Z,83.41
2023-03-08T10:33:29.433Z,83.51
2023-03-08T10:34:29.430Z,82.79
2023-03-08T10:35:29.425Z,82.41
2023-03-08T10:36:29.432Z,81.96
2023-03-08T10:37:29.402Z,82.79
2023-03-08T10:38:29.413Z,83.10
2023-03-08T10:39:29.441Z,82.93
2023-03-08T10:40:29.364Z,83.14
2023-03-08T10:41:29.356Z,83.14
2023-03-08T10:42:29.352Z,83.20
2023-03-08T10:43:29.346Z,82.89
2023-03-08T10:44:29.347Z,82.68
2023-03-08T10:45:29.345Z,83.00
2023-03-08T10:46:29.342Z,82.89
2023-03-08T10:47:29.332Z,82.58
2023-03-08T10:48:29.311Z,82.86
2023-03-08T10:49:29.291Z,82.44
2023-03-08T10:50:29.275Z,82.48
2023-03-08T10:51:29.261Z,82.13
2023-03-08T10:52:29.274Z,81.92
2023-03-08T10:53:29.263Z,82.06
2023-03-08T10:54:29.286Z,82.13
2023-03-08T10:55:29.277Z,82.13
2023-03-08T10:56:29.235Z,82.54
2023-03-08T10:57:29.243Z,81.82
2023-03-08T10:58:29.204Z,81.92
2023-03-08T10:59:29.176Z,82.13
2023-03-08T11:00:29.179Z,81.92
2023-03-08T11:01:29.182Z,82.34
2023-03-08T11:02:29.169Z,81.96
2023-03-08T11:03:29.154Z,81.92
2023-03-08T11:04:29.166Z,81.92
2023-03-08T11:05:29.133Z,81.61
2023-03-08T11:06:29.109Z,82.13
2023-03-08T11:07:29.124Z,82.13
2023-03-08T11:08:29.109Z,82.23
2023-03-08T11:09:29.082Z,82.44
2023-03-08T11:10:29.094Z,82.50
2023-03-08T11:11:29.090Z,82.40
2023-03-08T11:12:29.075Z,81.99
2023-03-08T11:13:29.036Z,81.88
2023-03-08T11:14:29.101Z,81.37
2023-03-08T11:15:29.012Z,81.02
2023-03-08T11:16:29.053Z,80.67
2023-03-08T11:17:28.994Z,80.81
2023-03-08T11:18:28.989Z,80.91
2023-03-08T11:19:28.997Z,80.71
2023-03-08T11:20:28.968Z,80.08
2023-03-08T11:21:28.950Z,80.40
2023-03-08T11:22:28.986Z,81.05
2023-03-08T11:23:28.938Z,80.85
2023-03-08T11:24:28.940Z,80.74
2023-03-08T11:25:28.963Z,81.26
2023-03-08T11:26:28.935Z,81.78
2023-03-08T11:27:28.902Z,82.13
2023-03-08T11:28:28.936Z,82.34
2023-03-08T11:29:28.889Z,82.13
2023-03-08T11:30:28.883Z,82.29
2023-03-08T11:31:28.882Z,81.78
2023-03-08T11:32:28.990Z,82.13
2023-03-08T11:33:29.003Z,83.10
2023-03-08T11:34:28.829Z,83.58
2023-03-08T11:35:28.840Z,83.47
2023-03-08T11:36:28.819Z,82.92
2023-03-08T11:37:28.818Z,82.29
2023-03-08T11:38:28.822Z,82.15
2023-03-08T11:39:28.821Z,82.15
2023-03-08T11:40:28.768Z,81.29
2023-03-08T11:41:28.759Z,80.88
2023-03-08T11:42:28.761Z,79.63
2023-03-08T11:43:28.758Z,80.11
2023-03-08T11:44:28.728Z,79.60
2023-03-08T11:45:28.720Z,79.70
2023-03-08T11:46:28.717Z,79.29
2023-03-08T11:47:28.721Z,79.46
2023-03-08T11:48:28.753Z,78.11
2023-03-08T11:49:28.673Z,77.60
2023-03-08T11:50:28.676Z,77.56
2023-03-08T11:51:28.700Z,77.98
2023-03-08T11:52:28.671Z,78.84
2023-03-08T11:53:28.640Z,78.84
2023-03-08T11:54:28.635Z,78.63
2023-03-08T11:55:28.661Z,78.67
2023-03-08T11:56:28.634Z,78.05
2023-03-08T11:57:28.615Z,79.08
2023-03-08T11:58:28.598Z,79.22
2023-03-08T11:59:28.579Z,79.53
2023-03-08T12:00:28.567Z,80.15
2023-03-08T12:01:28.582Z,80.98
2023-03-08T12:02:28.551Z,80.50
2023-03-08T12:03:28.559Z,80.81
2023-03-08T12:04:28.665Z,81.33
2023-03-08T12:05:28.572Z,81.33
2023-03-08T12:06:29.891Z,80.71
2023-03-08T12:07:29.600Z,81.23
2023-03-08T12:08:28.539Z,80.74
2023-03-08T12:09:28.557Z,81.78
2023-03-08T12:10:28.559Z,82.29
2023-03-08T12:11:28.445Z,82.09
2023-03-08T12:12:28.460Z,82.57
2023-03-08T12:13:28.428Z,82.29
2023-03-08T12:14:28.419Z,82.40
2023-03-08T12:15:28.485Z,82.95
2023-03-08T12:16:28.550Z,82.86
2023-03-08T12:17:28.438Z,83.16
2023-03-08T12:18:28.393Z,83.10
2023-03-08T12:19:28.363Z,83.83
2023-03-08T12:20:28.364Z,83.83
2023-03-08T12:21:28.382Z,84.13
2023-03-08T12:22:28.392Z,84.03
2023-03-08T12:23:28.347Z,83.72
2023-03-08T12:24:28.362Z,83.83
2023-03-08T12:25:28.324Z,83.89
2023-03-08T12:26:28.321Z,83.78
2023-03-08T12:27:28.293Z,83.78
2023-03-08T12:28:28.284Z,83.23
2023-03-08T12:29:29.297Z,83.54
2023-03-08T12:30:28.259Z,83.44
2023-03-08T12:31:29.314Z,83.19
2023-03-08T12:32:29.443Z,82.46
2023-03-08T12:33:28.320Z,82.67
2023-03-08T12:34:28.253Z,82.12
2023-03-08T12:35:28.336Z,81.64
2023-03-08T12:36:28.234Z,81.12
2023-03-08T12:37:28.271Z,81.54
2023-03-08T12:38:28.250Z,82.15
2023-03-08T12:39:28.217Z,82.29
2023-03-08T12:40:28.208Z,82.71
2023-03-08T12:41:28.204Z,83.61
2023-03-08T12:42:28.146Z,82.78
2023-03-08T12:43:28.137Z,82.98
2023-03-08T12:44:28.144Z,83.29
2023-03-08T12:45:28.148Z,83.71
2023-03-08T12:46:28.122Z,83.19
2023-03-08T12:47:28.153Z,83.64
2023-03-08T12:48:28.127Z,83.44
2023-03-08T12:49:28.139Z,82.92
2023-03-08T12:50:28.095Z,83.68
2023-03-08T12:51:28.082Z,83.68
2023-03-08T12:52:28.040Z,83.78